createdAt,value
2019-03-29T00:00:43.674Z,29.30
2019-03-29T00:08:50.909Z,29.20
2019-03-29T00:11:18.061Z,29.30
2019-03-29T00:13:45.312Z,29.30
2019-03-29T00:16:14.281Z,29.30
2019-03-29T00:24:06.994Z,29.30
2019-03-29T00:26:35.782Z,29.40
2019-03-29T00:29:03.441Z,29.30
2019-03-29T00:34:23.973Z,29.30
2019-03-29T00:36:51.990Z,29.20
2019-03-29T00:39:19.313Z,29.30
2019-03-29T00:41:46.514Z,29.20
2019-03-29T00:44:13.752Z,29.20
2019-03-29T00:46:41.062Z,29.20
2019-03-29T00:49:08.288Z,29.20
2019-03-29T00:57:04.814Z,29.20
2019-03-29T00:59:32.185Z,29.20
2019-03-29T01:01:59.466Z,29.20
2019-03-29T01:04:26.737Z,29.70
2019-03-29T01:06:54.310Z,29.20
2019-03-29T01:09:21.535Z,29.20
2019-03-29T01:11:53.090Z,29.20
2019-03-29T01:14:21.959Z,29.20
2019-03-29T01:16:54.858Z,29.10
2019-03-29T01:19:22.210Z,29.20
2019-03-29T01:21:49.446Z,29.20
2019-03-29T01:24:18.391Z,29.20
2019-03-29T01:26:45.471Z,29.20
2019-03-29T01:29:12.786Z,29.20
2019-03-29T01:34:50.341Z,29.20
2019-03-29T01:37:29.605Z,29.10
2019-03-29T01:39:56.832Z,29.10
2019-03-29T01:42:25.890Z,29.10
2019-03-29T01:44:54.231Z,29.10
2019-03-29T01:47:21.592Z,29.10
2019-03-29T01:49:48.864Z,29.10
2019-03-29T01:52:26.795Z,29.10
2019-03-29T01:55:06.745Z,29.20
2019-03-29T01:57:32.243Z,29.10
2019-03-29T02:00:00.402Z,29.10
2019-03-29T02:02:27.618Z,29.10
2019-03-29T02:04:54.855Z,29.20
2019-03-29T02:07:22.142Z,29.20
2019-03-29T02:12:34.265Z,29.20
2019-03-29T02:15:01.561Z,29.20
2019-03-29T02:17:28.763Z,29.20
2019-03-29T02:19:56.117Z,29.20
2019-03-29T02:22:23.293Z,29.20
2019-03-29T02:24:50.418Z,29.20
2019-03-29T02:27:17.615Z,29.20
2019-03-29T02:29:44.867Z,29.20
2019-03-29T02:32:31.833Z,29.20
2019-03-29T02:34:59.074Z,29.20
2019-03-29T02:37:29.443Z,29.20
2019-03-29T02:39:56.877Z,29.20
2019-03-29T02:42:25.983Z,29.20
2019-03-29T02:44:57.487Z,29.20
2019-03-29T02:47:24.938Z,29.20
2019-03-29T02:49:52.211Z,29.20
2019-03-29T02:52:19.566Z,29.20
2019-03-29T02:54:46.836Z,29.20
2019-03-29T02:57:14.382Z,29.20
2019-03-29T03:02:31.031Z,29.20
2019-03-29T03:04:57.760Z,29.30
2019-03-29T03:07:24.927Z,29.30
2019-03-29T03:09:52.375Z,29.30
2019-03-29T03:12:19.509Z,29.20
2019-03-29T03:14:46.634Z,29.20
2019-03-29T03:17:13.903Z,29.30
2019-03-29T03:19:58.879Z,29.30
2019-03-29T03:22:26.425Z,29.30
2019-03-29T03:24:53.786Z,29.20
2019-03-29T03:27:24.426Z,29.30
2019-03-29T03:29:51.919Z,29.30
2019-03-29T03:32:31.213Z,29.20
2019-03-29T03:34:58.461Z,29.20
2019-03-29T03:40:34.974Z,29.20
2019-03-29T03:43:02.519Z,29.10
2019-03-29T03:45:29.664Z,29.10
2019-03-29T03:47:59.656Z,29.10
2019-03-29T03:50:27.054Z,29.10
2019-03-29T03:53:27.077Z,29.20
2019-03-29T03:55:40.575Z,29.10
2019-03-29T03:58:07.733Z,29.20
2019-03-29T04:00:35.094Z,29.20
2019-03-29T04:03:02.260Z,29.20
2019-03-29T04:05:29.446Z,29.20
2019-03-29T04:11:05.178Z,29.20
2019-03-29T04:13:32.641Z,29.20
2019-03-29T04:15:59.895Z,29.10
2019-03-29T04:20:04.325Z,29.10
2019-03-29T04:21:15.604Z,29.10
2019-03-29T04:23:42.878Z,29.10
2019-03-29T04:26:09.990Z,29.10
2019-03-29T04:28:38.889Z,29.10
2019-03-29T04:31:06.101Z,29.10
2019-03-29T04:33:33.409Z,29.10
2019-03-29T04:36:00.749Z,29.10
2019-03-29T04:38:28.198Z,29.10
2019-03-29T04:40:55.352Z,29.10
2019-03-29T04:43:22.471Z,29.10
2019-03-29T04:45:49.721Z,29.10
2019-03-29T04:48:17.122Z,29.10
2019-03-29T04:50:44.261Z,29.10
2019-03-29T04:53:11.412Z,29.10
2019-03-29T04:55:38.718Z,29.10
2019-03-29T04:58:06.072Z,29.10
2019-03-29T05:00:33.373Z,29.10
2019-03-29T05:03:07.935Z,29.20
2019-03-29T05:05:35.147Z,29.20
2019-03-29T05:08:02.488Z,29.20
2019-03-29T05:13:23.178Z,29.20
2019-03-29T05:16:01.175Z,29.30
2019-03-29T05:18:41.472Z,29.20
2019-03-29T05:24:02.016Z,29.30
2019-03-29T05:26:44.878Z,29.40
2019-03-29T05:29:18.938Z,29.40
2019-03-29T05:32:16.545Z,29.30
2019-03-29T05:34:29.420Z,29.40
2019-03-29T05:36:58.493Z,29.50
2019-03-29T05:39:25.758Z,29.50
2019-03-29T05:41:52.835Z,29.50
2019-03-29T05:44:28.866Z,29.60
2019-03-29T05:46:56.019Z,29.70
2019-03-29T05:49:23.367Z,30.10
2019-03-29T05:51:50.528Z,29.40
2019-03-29T05:54:35.706Z,29.50
2019-03-29T05:57:05.861Z,29.60
2019-03-29T05:59:39.409Z,29.50
2019-03-29T06:02:09.996Z,29.50
2019-03-29T06:07:22.167Z,29.30
2019-03-29T06:09:49.626Z,29.30
2019-03-29T06:12:16.815Z,29.20
2019-03-29T06:14:43.916Z,29.00
2019-03-29T06:20:04.195Z,29.00
2019-03-29T06:22:33.669Z,29.00
2019-03-29T06:25:03.349Z,28.90
2019-03-29T06:27:34.357Z,28.90
2019-03-29T06:30:01.535Z,28.90
2019-03-29T06:32:28.780Z,28.90
2019-03-29T06:34:55.901Z,28.90
2019-03-29T06:37:23.464Z,28.90
2019-03-29T06:40:08.756Z,28.90
2019-03-29T06:42:36.051Z,28.90
2019-03-29T06:47:51.103Z,29.20
2019-03-29T06:50:18.469Z,29.20
2019-03-29T06:52:45.672Z,29.30
2019-03-29T06:55:12.899Z,29.30
2019-03-29T06:57:40.121Z,29.40
2019-03-29T07:00:10.225Z,29.40
2019-03-29T07:02:37.392Z,29.40
2019-03-29T07:05:09.160Z,29.40
2019-03-29T07:07:38.338Z,29.40
2019-03-29T07:10:08.253Z,29.40
2019-03-29T07:12:37.369Z,29.40
2019-03-29T07:15:04.541Z,29.50
2019-03-29T07:17:31.859Z,29.50
2019-03-29T07:20:05.105Z,29.40
2019-03-29T07:22:35.900Z,29.40
2019-03-29T07:25:01.776Z,29.50
2019-03-29T07:27:28.946Z,29.40
2019-03-29T07:29:56.224Z,29.40
2019-03-29T07:32:28.263Z,29.50
2019-03-29T07:34:54.753Z,29.40
2019-03-29T07:37:24.921Z,29.40
2019-03-29T07:39:53.872Z,29.50
2019-03-29T07:42:22.621Z,29.50
2019-03-29T07:44:49.773Z,29.40
2019-03-29T07:47:19.394Z,29.40
2019-03-29T07:49:46.524Z,29.40
2019-03-29T07:52:30.615Z,29.40
2019-03-29T07:54:57.746Z,29.40
2019-03-29T07:57:26.084Z,29.40
2019-03-29T07:59:53.223Z,29.40
2019-03-29T08:02:22.037Z,29.40
2019-03-29T08:04:51.302Z,29.40
2019-03-29T08:07:27.221Z,29.40
2019-03-29T08:15:20.680Z,29.30
2019-03-29T08:20:56.790Z,29.30
2019-03-29T08:23:48.152Z,29.30
2019-03-29T08:26:23.773Z,29.30
2019-03-29T08:28:39.944Z,29.20
2019-03-29T08:31:12.090Z,29.20
2019-03-29T08:33:44.390Z,29.20
2019-03-29T08:40:35.910Z,29.20
2019-03-29T08:41:59.478Z,29.20
2019-03-29T08:44:22.203Z,29.30
2019-03-29T09:04:05.706Z,29.60
2019-03-29T09:15:13.957Z,29.50
2019-03-29T09:17:48.902Z,29.60
2019-03-29T09:20:22.573Z,29.50
2019-03-29T09:23:01.413Z,29.60
2019-03-29T09:25:35.703Z,29.80
2019-03-29T09:28:02.367Z,29.90
2019-03-29T09:30:41.330Z,29.90
2019-03-29T09:33:17.861Z,30.00
2019-03-29T09:35:50.997Z,30.00
2019-03-29T09:38:23.235Z,29.90
2019-03-29T09:40:59.116Z,29.80
2019-03-29T09:43:32.023Z,29.80
2019-03-29T09:46:07.511Z,29.80
2019-03-29T09:48:49.783Z,29.80
2019-03-29T09:56:39.732Z,29.70
2019-03-29T09:59:09.614Z,29.70
2019-03-29T10:04:11.738Z,29.70
2019-03-29T10:06:46.538Z,29.60
2019-03-29T10:26:28.742Z,29.60
2019-03-29T10:31:59.187Z,29.80
2019-03-29T10:34:26.371Z,29.80
2019-03-29T10:36:54.130Z,29.80
2019-03-29T10:42:09.698Z,29.70
2019-03-29T10:44:37.054Z,29.70
2019-03-29T10:47:06.296Z,29.70
2019-03-29T10:49:33.536Z,29.70
2019-03-29T10:55:14.069Z,29.70
2019-03-29T10:57:39.581Z,29.90
2019-03-29T11:00:08.506Z,30.00
2019-03-29T11:02:36.191Z,30.20
2019-03-29T11:05:03.443Z,30.30
2019-03-29T11:07:30.680Z,30.00
2019-03-29T11:09:57.868Z,29.90
2019-03-29T11:12:25.403Z,29.90
2019-03-29T11:14:58.667Z,30.00
2019-03-29T11:17:29.597Z,29.90
2019-03-29T11:19:58.717Z,30.00
2019-03-29T11:22:26.084Z,30.00
2019-03-29T11:24:53.303Z,30.00
2019-03-29T11:27:22.487Z,30.20
2019-03-29T11:32:36.889Z,30.20
2019-03-29T11:35:06.086Z,30.70
2019-03-29T11:37:33.306Z,30.70
2019-03-29T11:40:02.554Z,30.90
2019-03-29T11:42:29.810Z,31.10
2019-03-29T11:44:59.218Z,31.10
2019-03-29T11:47:29.538Z,30.70
2019-03-29T11:49:58.800Z,30.80
2019-03-29T11:52:25.985Z,30.60
2019-03-29T11:54:59.341Z,30.70
2019-03-29T12:03:11.422Z,30.40
2019-03-29T12:05:40.280Z,30.40
2019-03-29T12:08:13.553Z,30.30
2019-03-29T12:10:40.959Z,30.50
2019-03-29T12:19:05.795Z,30.30
2019-03-29T12:21:36.076Z,30.30
2019-03-29T12:24:03.345Z,30.20
2019-03-29T12:26:35.151Z,30.30
2019-03-29T12:29:14.812Z,30.20
2019-03-29T12:37:35.928Z,30.20
2019-03-29T12:40:10.082Z,30.00
2019-03-29T12:43:00.370Z,30.10
2019-03-29T12:45:19.720Z,30.10
2019-03-29T12:47:54.989Z,30.10
2019-03-29T12:50:28.988Z,30.00
2019-03-29T12:52:59.974Z,30.00
2019-03-29T12:55:38.833Z,30.00
2019-03-29T12:58:09.234Z,30.00
2019-03-29T13:00:44.892Z,30.00
2019-03-29T13:03:17.491Z,30.10
2019-03-29T13:08:19.735Z,30.20
2019-03-29T13:10:49.938Z,30.30
2019-03-29T13:18:53.731Z,30.30
2019-03-29T13:21:20.281Z,30.40
2019-03-29T13:23:55.815Z,30.30
2019-03-29T13:26:32.742Z,30.20
2019-03-29T13:28:58.500Z,30.30
2019-03-29T13:31:51.368Z,30.30
2019-03-29T13:34:18.810Z,30.30
2019-03-29T13:36:46.029Z,30.30
2019-03-29T13:39:20.773Z,30.40
2019-03-29T13:41:53.472Z,30.30
2019-03-29T13:44:25.396Z,30.50
2019-03-29T13:46:59.979Z,30.60
2019-03-29T13:49:37.901Z,30.50
2019-03-29T13:52:16.520Z,30.40
2019-03-29T13:55:06.243Z,30.40
2019-03-29T13:57:43.817Z,30.40
2019-03-29T14:00:23.748Z,30.50
2019-03-29T14:02:51.410Z,30.50
2019-03-29T14:05:18.448Z,30.40
2019-03-29T14:07:45.546Z,30.40
2019-03-29T14:15:59.953Z,30.20
2019-03-29T14:18:31.253Z,30.50
2019-03-29T14:21:07.432Z,30.40
2019-03-29T14:23:34.609Z,30.40
2019-03-29T14:26:12.716Z,30.20
2019-03-29T14:28:39.855Z,30.10
2019-03-29T14:31:08.350Z,30.20
2019-03-29T14:33:38.936Z,30.10
2019-03-29T14:36:28.850Z,30.70
2019-03-29T14:38:57.814Z,30.10
2019-03-29T14:41:25.928Z,30.00
2019-03-29T14:43:53.030Z,30.00
2019-03-29T14:46:43.008Z,30.00
2019-03-29T14:49:07.234Z,30.10
2019-03-29T14:51:34.480Z,30.00
2019-03-29T14:54:01.853Z,30.20
2019-03-29T14:59:23.195Z,30.00
2019-03-29T15:01:50.334Z,30.00
2019-03-29T15:04:17.484Z,30.00
2019-03-29T15:09:37.284Z,30.00
2019-03-29T15:17:29.251Z,30.00
2019-03-29T15:19:56.944Z,30.00
2019-03-29T15:22:39.418Z,30.10
2019-03-29T15:25:06.583Z,30.20
2019-03-29T15:27:36.676Z,30.00
2019-03-29T15:30:03.842Z,30.00
2019-03-29T15:32:31.248Z,30.00
2019-03-29T15:35:02.716Z,30.00
2019-03-29T15:37:29.825Z,30.00
2019-03-29T15:39:57.048Z,30.00
2019-03-29T15:42:24.201Z,29.90
2019-03-29T15:44:51.350Z,29.90
2019-03-29T15:47:20.543Z,29.90
2019-03-29T15:49:55.735Z,29.90
2019-03-29T15:52:16.668Z,29.80
2019-03-29T15:54:45.584Z,29.80
2019-03-29T16:03:00.079Z,29.70
2019-03-29T16:05:27.549Z,29.90
2019-03-29T16:10:50.301Z,29.80
2019-03-29T16:13:20.735Z,29.80
2019-03-29T16:19:12.481Z,29.90
2019-03-29T16:27:25.272Z,29.90
2019-03-29T16:29:52.995Z,30.00
2019-03-29T16:32:21.868Z,29.90
2019-03-29T16:34:50.618Z,29.90
2019-03-29T16:37:18.402Z,30.10
2019-03-29T16:39:45.520Z,30.00
2019-03-29T16:42:12.941Z,30.00
2019-03-29T16:44:40.117Z,30.00
2019-03-29T16:47:17.667Z,30.00
2019-03-29T16:49:45.115Z,30.00
2019-03-29T16:52:12.422Z,30.00
2019-03-29T16:54:39.564Z,30.00
2019-03-29T16:57:07.159Z,30.00
2019-03-29T16:59:44.378Z,30.00
2019-03-29T17:02:11.085Z,30.00
2019-03-29T17:07:26.101Z,29.90
2019-03-29T17:09:53.211Z,29.90
2019-03-29T17:12:22.047Z,30.00
2019-03-29T17:14:49.329Z,30.00
2019-03-29T17:17:18.773Z,30.00
2019-03-29T17:19:48.710Z,29.90
2019-03-29T17:22:47.643Z,30.00
2019-03-29T17:25:15.004Z,30.10
2019-03-29T17:27:43.873Z,30.00
2019-03-29T17:30:11.196Z,30.00
2019-03-29T17:32:49.127Z,30.00
2019-03-29T17:35:13.206Z,30.00
2019-03-29T17:37:40.538Z,30.00
2019-03-29T17:40:07.625Z,30.00
2019-03-29T17:45:29.901Z,30.10
2019-03-29T17:48:00.521Z,30.10
2019-03-29T17:50:27.553Z,30.30
2019-03-29T17:52:54.764Z,30.40
2019-03-29T17:55:52.089Z,30.10
2019-03-29T17:58:19.257Z,30.10
2019-03-29T18:00:46.458Z,30.60
2019-03-29T18:03:13.671Z,30.00
2019-03-29T18:08:19.273Z,30.30
2019-03-29T18:10:48.265Z,30.40
2019-03-29T18:13:15.519Z,30.30
2019-03-29T18:15:45.854Z,30.60
2019-03-29T18:18:13.548Z,30.70
2019-03-29T18:20:44.745Z,30.80
2019-03-29T18:23:12.005Z,30.60
2019-03-29T18:25:42.703Z,30.50
2019-03-29T18:28:10.092Z,30.30
2019-03-29T18:30:37.346Z,30.20
2019-03-29T18:33:07.881Z,30.20
2019-03-29T18:35:35.087Z,30.20
2019-03-29T18:38:08.317Z,30.30
2019-03-29T18:40:37.310Z,30.10
2019-03-29T18:43:04.693Z,30.20
2019-03-29T18:45:32.387Z,30.30
2019-03-29T18:47:59.539Z,30.50
2019-03-29T18:50:43.990Z,30.40
2019-03-29T18:53:11.064Z,30.40
2019-03-29T18:55:38.438Z,30.30
2019-03-29T18:58:05.988Z,30.30
2019-03-29T19:00:33.449Z,30.30
2019-03-29T19:03:00.628Z,30.50
2019-03-29T19:05:31.140Z,30.40
2019-03-29T19:08:00.070Z,30.40
2019-03-29T19:10:27.278Z,30.60
2019-03-29T19:12:54.671Z,30.60
2019-03-29T19:18:03.476Z,30.30
2019-03-29T19:20:30.871Z,30.30
2019-03-29T19:22:58.216Z,30.40
2019-03-29T19:25:25.678Z,30.30
2019-03-29T19:27:52.870Z,30.10
2019-03-29T19:30:20.080Z,30.00
2019-03-29T19:35:33.756Z,30.10
2019-03-29T19:41:09.367Z,30.00
2019-03-29T19:43:44.359Z,30.10
2019-03-29T19:46:08.790Z,30.40
2019-03-29T19:48:36.109Z,30.40
2019-03-29T19:51:03.293Z,31.20
2019-03-29T19:53:30.650Z,30.60
2019-03-29T19:56:15.594Z,30.70
2019-03-29T19:58:42.876Z,30.70
2019-03-29T20:01:12.271Z,31.30
2019-03-29T20:03:47.259Z,30.80
2019-03-29T20:06:14.559Z,30.70
2019-03-29T20:08:41.699Z,30.70
2019-03-29T20:11:09.068Z,30.50
2019-03-29T20:13:36.147Z,30.60
2019-03-29T20:16:03.517Z,30.60
2019-03-29T20:18:36.275Z,30.50
2019-03-29T20:21:07.860Z,30.50
2019-03-29T20:23:35.107Z,30.50
2019-03-29T20:31:38.780Z,30.50
2019-03-29T20:34:09.121Z,30.50
2019-03-29T20:36:38.221Z,30.50
2019-03-29T20:39:08.237Z,30.50
2019-03-29T20:41:36.105Z,30.50
2019-03-29T20:47:05.939Z,30.50
2019-03-29T20:49:33.291Z,30.50
2019-03-29T20:52:00.880Z,30.50
2019-03-29T20:54:29.740Z,30.50
2019-03-29T20:56:56.965Z,30.90
2019-03-29T20:59:25.920Z,33.80
2019-03-29T21:01:54.773Z,32.00
2019-03-29T21:04:23.148Z,31.50
2019-03-29T21:06:50.611Z,31.40
2019-03-29T21:09:20.703Z,31.40
2019-03-29T21:20:14.202Z,31.30
2019-03-29T21:22:43.245Z,31.00
2019-03-29T21:25:14.294Z,31.20
2019-03-29T21:27:41.902Z,31.00
2019-03-29T21:30:15.536Z,31.00
2019-03-29T21:35:18.765Z,30.80
2019-03-29T21:40:36.733Z,30.70
2019-03-29T21:43:23.657Z,30.70
2019-03-29T21:45:55.076Z,30.60
2019-03-29T21:48:29.416Z,30.60
2019-03-29T21:57:04.478Z,30.40
2019-03-29T22:11:17.885Z,30.30
2019-03-29T22:13:46.272Z,30.20
2019-03-29T22:16:36.304Z,30.10
2019-03-29T22:19:09.615Z,30.60
2019-03-29T22:27:47.386Z,30.00
2019-03-29T22:30:17.710Z,30.00
2019-03-29T22:33:36.315Z,29.80
2019-03-29T22:35:52.426Z,29.80
2019-03-29T22:38:29.940Z,29.70
2019-03-29T22:44:11.445Z,29.70
2019-03-29T22:46:35.445Z,29.70
2019-03-29T22:49:15.264Z,29.70
2019-03-29T22:51:42.068Z,29.70
2019-03-29T22:54:49.584Z,29.70
2019-03-29T22:57:12.105Z,29.70
2019-03-29T22:59:40.662Z,29.70
2019-03-29T23:02:07.997Z,29.60
2019-03-29T23:04:43.031Z,29.60
2019-03-29T23:07:10.161Z,29.60
2019-03-29T23:09:56.662Z,29.60
2019-03-29T23:12:23.079Z,29.70
2019-03-29T23:14:51.808Z,29.60
2019-03-29T23:17:20.905Z,29.60
2019-03-29T23:19:51.275Z,29.70
2019-03-29T23:22:18.416Z,29.50
2019-03-29T23:30:25.155Z,29.40
2019-03-29T23:33:06.883Z,29.40
2019-03-29T23:35:28.867Z,29.40
2019-03-29T23:38:00.928Z,29.40
2019-03-29T23:40:29.663Z,29.40
2019-03-29T23:43:15.269Z,29.40
2019-03-29T23:45:42.346Z,29.50
2019-03-29T23:48:15.437Z,29.50
2019-03-29T23:50:44.146Z,29.50
2019-03-29T23:53:14.776Z,29.60
2019-03-29T23:55:42.058Z,29.60
2019-03-29T23:58:09.512Z,29.60
